createdAt,value
2018-06-28T00:00:16.112Z,99228.94
2018-06-28T00:02:43.373Z,99236.31
2018-06-28T00:05:10.685Z,99234.48
2018-06-28T00:07:37.918Z,99232.48
2018-06-28T00:10:05.187Z,99230.77
2018-06-28T00:12:32.449Z,99235.31
2018-06-28T00:14:59.910Z,99220.30
2018-06-28T00:20:17.282Z,99225.84
2018-06-28T00:22:44.554Z,99224.20
2018-06-28T00:25:11.822Z,99227.34
2018-06-28T00:27:39.082Z,99219.14
2018-06-28T00:30:06.464Z,99222.23
2018-06-28T00:32:33.750Z,99222.70
2018-06-28T00:35:01.072Z,99218.72
2018-06-28T00:37:28.339Z,99218.32
2018-06-28T00:40:15.057Z,99219.14
2018-06-28T00:42:42.375Z,99221.00
2018-06-28T00:45:09.755Z,99218.91
2018-06-28T00:47:37.058Z,99220.52
2018-06-28T00:50:04.327Z,99215.91
2018-06-28T00:52:31.610Z,99211.25
2018-06-28T00:54:58.870Z,99214.95
2018-06-28T00:57:26.246Z,99208.36
2018-06-28T00:59:53.538Z,99205.19
2018-06-28T01:02:20.867Z,99203.33
2018-06-28T01:04:48.148Z,99206.30
2018-06-28T01:07:15.483Z,99198.42
2018-06-28T01:09:42.751Z,99196.23
2018-06-28T01:12:10.011Z,99199.38
2018-06-28T01:14:37.283Z,99191.21
2018-06-28T01:17:04.731Z,99200.23
2018-06-28T01:19:31.954Z,99202.16
2018-06-28T01:21:59.244Z,99202.98
2018-06-28T01:24:26.534Z,99201.11
2018-06-28T01:26:53.830Z,99202.61
2018-06-28T01:29:21.074Z,99204.15
2018-06-28T01:31:48.379Z,99204.56
2018-06-28T01:34:15.829Z,99205.43
2018-06-28T01:36:43.109Z,99200.58
2018-06-28T01:39:11.399Z,99199.08
2018-06-28T01:41:50.890Z,99194.97
2018-06-28T01:44:18.178Z,99194.06
2018-06-28T01:46:45.410Z,99199.94
2018-06-28T01:49:12.779Z,99192.33
2018-06-28T01:51:40.017Z,99190.60
2018-06-28T01:54:07.288Z,99184.60
2018-06-28T01:56:34.519Z,99188.14
2018-06-28T01:59:01.786Z,99192.51
2018-06-28T02:01:29.049Z,99193.83
2018-06-28T02:03:56.306Z,99189.88
2018-06-28T02:06:23.574Z,99190.22
2018-06-28T02:08:51.012Z,99189.28
2018-06-28T02:11:18.278Z,99190.61
2018-06-28T02:13:45.599Z,99187.00
2018-06-28T02:16:12.846Z,99188.20
2018-06-28T02:18:40.088Z,99184.60
2018-06-28T02:21:07.371Z,99188.06
2018-06-28T02:23:34.614Z,99199.47
2018-06-28T02:26:01.903Z,99194.69
2018-06-28T02:28:29.125Z,99196.53
2018-06-28T02:30:56.407Z,99195.48
2018-06-28T02:33:23.722Z,99196.14
2018-06-28T02:35:51.087Z,99198.42
2018-06-28T02:38:18.365Z,99198.94
2018-06-28T02:40:45.687Z,99200.58
2018-06-28T02:43:12.966Z,99201.89
2018-06-28T02:45:40.311Z,99199.26
2018-06-28T02:48:07.725Z,99202.76
2018-06-28T02:50:35.164Z,99206.67
2018-06-28T02:53:02.506Z,99205.33
2018-06-28T02:55:30.021Z,99205.78
2018-06-28T02:57:57.474Z,99209.31
2018-06-28T03:00:25.398Z,99208.00
2018-06-28T03:02:52.804Z,99205.84
2018-06-28T03:05:20.157Z,99205.01
2018-06-28T03:07:47.537Z,99204.14
2018-06-28T03:10:14.957Z,99207.67
2018-06-28T03:12:43.016Z,99210.02
2018-06-28T03:15:11.111Z,99201.70
2018-06-28T03:17:38.455Z,99202.89
2018-06-28T03:20:06.304Z,99202.89
2018-06-28T03:22:34.928Z,99202.02
2018-06-28T03:25:03.980Z,99203.05
2018-06-28T03:27:31.994Z,99201.31
2018-06-28T03:29:59.398Z,99202.21
2018-06-28T03:32:26.815Z,99196.44
2018-06-28T03:34:54.169Z,99195.89
2018-06-28T03:37:21.556Z,99200.99
2018-06-28T03:39:48.931Z,99194.80
2018-06-28T03:42:17.053Z,99193.83
2018-06-28T03:44:44.422Z,99201.08
2018-06-28T03:47:11.774Z,99195.77
2018-06-28T03:49:40.119Z,99202.28
2018-06-28T03:52:07.517Z,99188.14
2018-06-28T03:54:35.049Z,99186.78
2018-06-28T03:57:02.737Z,99184.60
2018-06-28T03:59:31.076Z,99192.05
2018-06-28T04:01:59.071Z,99184.49
2018-06-28T04:04:26.558Z,99186.19
2018-06-28T04:06:53.965Z,99189.54
2018-06-28T04:09:21.932Z,99189.84
2018-06-28T04:11:49.374Z,99194.85
2018-06-28T04:14:16.928Z,99183.63
2018-06-28T04:16:44.352Z,99182.13
2018-06-28T04:19:11.790Z,99185.02
2018-06-28T04:21:39.260Z,99189.19
2018-06-28T04:24:06.662Z,99175.05
2018-06-28T04:26:34.073Z,99178.34
2018-06-28T04:29:01.408Z,99175.88
2018-06-28T04:31:28.735Z,99173.89
2018-06-28T04:33:56.242Z,99180.17
2018-06-28T04:36:23.786Z,99175.20
2018-06-28T04:38:51.198Z,99180.36
2018-06-28T04:41:18.504Z,99181.95
2018-06-28T04:43:45.964Z,99173.46
2018-06-28T04:46:13.330Z,99169.22
2018-06-28T04:48:40.884Z,99175.28
2018-06-28T04:51:08.267Z,99173.95
2018-06-28T04:53:35.712Z,99168.20
2018-06-28T04:56:03.629Z,99172.19
2018-06-28T04:58:30.964Z,99170.81
2018-06-28T05:00:59.196Z,99169.38
2018-06-28T05:03:26.555Z,99176.87
2018-06-28T05:05:54.108Z,99175.18
2018-06-28T05:08:21.480Z,99173.55
2018-06-28T05:10:48.925Z,99170.95
2018-06-28T05:13:16.268Z,99160.58
2018-06-28T05:15:43.663Z,99164.33
2018-06-28T05:18:11.075Z,99155.71
2018-06-28T05:20:39.403Z,99162.94
2018-06-28T05:23:06.800Z,99161.67
2018-06-28T05:25:34.188Z,99160.09
2018-06-28T05:28:01.574Z,99159.30
2018-06-28T05:30:29.470Z,99155.84
2018-06-28T05:32:57.053Z,99152.72
2018-06-28T05:35:24.501Z,99151.77
2018-06-28T05:37:52.652Z,99155.14
2018-06-28T05:40:20.082Z,99157.73
2018-06-28T05:42:47.455Z,99160.11
2018-06-28T05:45:15.703Z,99158.68
2018-06-28T05:47:45.860Z,99150.23
2018-06-28T05:50:15.738Z,99153.13
2018-06-28T05:52:45.545Z,99156.72
2018-06-28T05:55:13.567Z,99151.89
2018-06-28T05:57:40.881Z,99149.45
2018-06-28T06:00:08.347Z,99149.45
2018-06-28T06:02:35.802Z,99148.98
2018-06-28T06:05:03.387Z,99140.28
2018-06-28T06:07:30.772Z,99136.70
2018-06-28T06:09:58.202Z,99141.68
2018-06-28T06:12:25.786Z,99141.32
2018-06-28T06:17:45.800Z,99138.27
2018-06-28T06:20:13.267Z,99137.45
2018-06-28T06:22:41.553Z,99138.61
2018-06-28T06:25:08.988Z,99138.91
2018-06-28T06:27:36.904Z,99140.73
2018-06-28T06:30:05.975Z,99137.80
2018-06-28T06:32:33.441Z,99137.59
2018-06-28T06:35:01.447Z,99133.41
2018-06-28T06:37:28.960Z,99133.93
2018-06-28T06:39:56.348Z,99124.48
2018-06-28T06:42:23.708Z,99123.31
2018-06-28T06:44:52.151Z,99116.42
2018-06-28T06:47:19.725Z,99119.96
2018-06-28T06:49:47.223Z,99118.46
2018-06-28T06:52:14.598Z,99119.22
2018-06-28T06:54:42.031Z,99118.27
2018-06-28T06:57:09.535Z,99116.39
2018-06-28T06:59:37.013Z,99117.33
2018-06-28T07:02:04.605Z,99112.09
2018-06-28T07:04:32.004Z,99113.89
2018-06-28T07:06:59.577Z,99110.78
2018-06-28T07:09:27.775Z,99110.60
2018-06-28T07:11:55.669Z,99104.22
2018-06-28T07:14:23.232Z,99094.67
2018-06-28T07:16:50.637Z,99096.37
2018-06-28T07:19:18.106Z,99095.73
2018-06-28T07:21:45.826Z,99095.50
2018-06-28T07:24:13.254Z,99096.84
2018-06-28T07:26:40.631Z,99092.02
2018-06-28T07:29:08.026Z,99087.62
2018-06-28T07:31:35.441Z,99078.13
2018-06-28T07:34:02.941Z,99083.27
2018-06-28T07:36:30.347Z,99086.27
2018-06-28T07:38:57.993Z,99084.41
2018-06-28T07:41:25.643Z,99083.36
2018-06-28T07:43:53.223Z,99079.48
2018-06-28T07:46:20.624Z,99070.44
2018-06-28T07:48:48.015Z,99066.06
2018-06-28T07:51:15.592Z,99070.87
2018-06-28T07:53:42.974Z,99058.53
2018-06-28T07:56:11.046Z,99054.13
2018-06-28T07:58:38.451Z,99047.96
2018-06-28T08:01:05.881Z,99048.75
2018-06-28T08:03:33.250Z,99044.34
2018-06-28T08:06:01.348Z,99049.35
2018-06-28T08:08:28.673Z,99045.95
2018-06-28T08:10:56.161Z,99041.81
2018-06-28T08:13:23.841Z,99029.41
2018-06-28T08:15:51.272Z,99031.82
2018-06-28T08:18:18.682Z,99036.23
2018-06-28T08:20:46.098Z,99039.13
2018-06-28T08:23:13.491Z,99038.04
2018-06-28T08:25:40.874Z,99038.22
2018-06-28T08:28:08.539Z,99031.33
2018-06-28T08:30:35.886Z,99028.73
2018-06-28T08:33:04.801Z,99016.55
2018-06-28T08:35:32.812Z,99022.22
2018-06-28T08:38:00.219Z,99024.09
2018-06-28T08:40:27.650Z,99022.19
2018-06-28T08:42:55.097Z,99016.59
2018-06-28T08:45:22.495Z,99017.17
2018-06-28T08:47:49.855Z,99013.28
2018-06-28T08:50:17.242Z,99013.41
2018-06-28T08:52:45.291Z,99010.67
2018-06-28T08:55:12.643Z,99006.27
2018-06-28T08:57:40.208Z,99017.02
2018-06-28T09:00:08.061Z,99003.03
2018-06-28T09:02:35.350Z,98998.28
2018-06-28T09:05:02.696Z,98995.87
2018-06-28T09:07:30.127Z,98988.77
2018-06-28T09:09:57.486Z,98991.78
2018-06-28T09:12:25.766Z,98991.77
2018-06-28T09:14:53.141Z,98986.45
2018-06-28T09:17:20.650Z,98985.22
2018-06-28T09:19:48.024Z,98975.88
2018-06-28T09:22:15.407Z,98977.85
2018-06-28T09:24:42.781Z,98977.77
2018-06-28T09:27:11.140Z,98977.95
2018-06-28T09:29:38.600Z,98965.28
2018-06-28T09:32:06.542Z,98973.67
2018-06-28T09:34:34.226Z,98967.48
2018-06-28T09:37:01.893Z,98967.27
2018-06-28T09:39:30.153Z,98969.10
2018-06-28T09:41:57.911Z,98959.59
2018-06-28T09:44:25.637Z,98958.52
2018-06-28T09:46:53.340Z,98960.47
2018-06-28T09:49:20.932Z,98954.91
2018-06-28T09:51:48.559Z,98956.17
2018-06-28T09:54:16.905Z,98945.59
2018-06-28T09:56:44.398Z,98951.97
2018-06-28T09:59:11.955Z,98952.78
2018-06-28T10:01:40.795Z,98948.02
2018-06-28T10:04:08.494Z,98949.77
2018-06-28T10:06:36.008Z,98951.48
2018-06-28T10:09:05.932Z,98930.17
2018-06-28T10:11:33.946Z,98931.15
2018-06-28T10:14:01.575Z,98925.78
2018-06-28T10:16:29.024Z,98928.91
2018-06-28T10:18:56.440Z,98926.02
2018-06-28T10:21:24.363Z,98922.28
2018-06-28T10:23:51.851Z,98921.15
2018-06-28T10:26:19.394Z,98927.80
2018-06-28T10:28:47.022Z,98909.41
2018-06-28T10:31:16.547Z,98928.32
2018-06-28T10:33:44.032Z,98925.25
2018-06-28T10:36:11.725Z,98929.05
2018-06-28T10:38:40.283Z,98922.09
2018-06-28T10:41:07.675Z,98918.58
2018-06-28T10:43:35.024Z,98908.45
2018-06-28T10:46:02.608Z,98913.91
2018-06-28T10:48:30.955Z,98912.15
2018-06-28T10:50:58.581Z,98908.20
2018-06-28T10:53:26.123Z,98907.75
2018-06-28T10:55:53.554Z,98912.18
2018-06-28T10:58:20.985Z,98892.84
2018-06-28T11:00:48.472Z,98886.55
2018-06-28T11:03:16.101Z,98885.24
2018-06-28T11:05:44.380Z,98881.05
2018-06-28T11:08:11.923Z,98881.79
2018-06-28T11:10:39.838Z,98874.83
2018-06-28T11:13:07.228Z,98869.56
2018-06-28T11:15:34.663Z,98862.41
2018-06-28T11:18:02.381Z,98868.84
2018-06-28T11:20:30.105Z,98871.27
2018-06-28T11:22:57.481Z,98851.34
2018-06-28T11:25:24.835Z,98851.86
2018-06-28T11:27:55.381Z,98849.84
2018-06-28T11:30:24.371Z,98837.34
2018-06-28T11:32:54.660Z,98845.26
2018-06-28T11:35:24.959Z,98831.56
2018-06-28T11:37:52.350Z,98831.95
2018-06-28T11:40:20.256Z,98832.64
2018-06-28T11:42:47.614Z,98834.70
2018-06-28T11:45:15.245Z,98821.61
2018-06-28T11:47:42.570Z,98810.97
2018-06-28T11:50:11.037Z,98822.38
2018-06-28T11:52:38.426Z,98809.92
2018-06-28T11:55:05.797Z,98799.95
2018-06-28T11:57:34.109Z,98808.94
2018-06-28T12:00:02.698Z,98802.59
2018-06-28T12:02:30.129Z,98785.14
2018-06-28T12:04:57.474Z,98802.84
2018-06-28T12:07:24.909Z,98804.56
2018-06-28T12:09:52.296Z,98795.40
2018-06-28T12:12:19.760Z,98792.66
2018-06-28T12:14:47.184Z,98796.50
2018-06-28T12:17:14.523Z,98792.97
2018-06-28T12:19:41.902Z,98782.37
2018-06-28T12:22:09.503Z,98784.32
2018-06-28T12:27:03.763Z,98784.13
2018-06-28T12:29:31.132Z,98782.77
2018-06-28T12:31:58.806Z,98776.38
2018-06-28T12:34:26.202Z,98770.17
2018-06-28T12:36:53.648Z,98764.63
2018-06-28T12:39:21.035Z,98763.19
2018-06-28T12:41:48.454Z,98745.70
2018-06-28T12:44:16.019Z,98751.27
2018-06-28T12:47:55.119Z,98739.76
2018-06-28T12:50:24.794Z,98737.70
2018-06-28T12:52:57.104Z,98742.56
2018-06-28T12:55:27.331Z,98746.79
2018-06-28T12:57:56.987Z,98754.56
2018-06-28T13:00:24.431Z,98748.73
2018-06-28T13:02:51.990Z,98751.42
2018-06-28T13:05:19.710Z,98747.06
2018-06-28T13:07:47.190Z,98748.41
2018-06-28T13:10:18.206Z,98749.99
2018-06-28T13:12:45.900Z,98742.28
2018-06-28T13:15:15.473Z,98741.54
2018-06-28T13:17:43.044Z,98747.73
2018-06-28T13:20:10.869Z,98738.00
2018-06-28T13:22:38.774Z,98734.75
2018-06-28T13:25:07.181Z,98724.92
2018-06-28T13:27:34.682Z,98721.11
2018-06-28T13:30:02.299Z,98719.76
2018-06-28T13:32:29.706Z,98709.78
2018-06-28T13:34:57.048Z,98713.56
2018-06-28T13:37:24.458Z,98708.67
2018-06-28T13:39:51.710Z,98715.60
2018-06-28T13:42:19.150Z,98715.37
2018-06-28T13:44:46.329Z,98719.17
2018-06-28T13:47:13.696Z,98718.31
2018-06-28T13:49:41.031Z,98724.43
2018-06-28T13:52:09.163Z,98728.85
2018-06-28T13:54:36.705Z,98726.66
2018-06-28T13:57:04.168Z,98726.84
2018-06-28T13:59:31.550Z,98721.08
2018-06-28T14:01:58.940Z,98722.36
2018-06-28T14:04:26.339Z,98721.03
2018-06-28T14:06:54.001Z,98718.07
2018-06-28T14:09:21.389Z,98711.84
2018-06-28T14:11:48.711Z,98710.27
2018-06-28T14:14:16.181Z,98710.32
2018-06-28T14:16:43.543Z,98711.08
2018-06-28T14:19:10.951Z,98710.94
2018-06-28T14:21:38.336Z,98708.36
2018-06-28T14:24:05.998Z,98710.72
2018-06-28T14:26:33.411Z,98705.20
2018-06-28T14:29:13.686Z,98704.70
2018-06-28T14:31:41.139Z,98698.22
2018-06-28T14:34:08.554Z,98702.23
2018-06-28T14:36:36.160Z,98697.11
2018-06-28T14:39:05.517Z,98705.92
2018-06-28T14:41:33.024Z,98703.94
2018-06-28T14:44:00.448Z,98699.20
2018-06-28T14:46:28.051Z,98702.48
2018-06-28T14:48:56.223Z,98698.34
2018-06-28T14:51:23.655Z,98694.91
2018-06-28T14:53:51.816Z,98695.16
2018-06-28T14:56:19.201Z,98698.58
2018-06-28T14:58:46.766Z,98696.00
2018-06-28T15:01:14.199Z,98693.83
2018-06-28T15:03:41.594Z,98699.41
2018-06-28T15:06:09.013Z,98694.86
2018-06-28T15:08:36.483Z,98692.42
2018-06-28T15:11:04.477Z,98690.45
2018-06-28T15:13:32.131Z,98697.96
2018-06-28T15:15:59.564Z,98690.73
2018-06-28T15:18:26.949Z,98690.36
2018-06-28T15:20:54.448Z,98692.28
2018-06-28T15:23:22.544Z,98689.36
2018-06-28T15:25:49.975Z,98684.84
2018-06-28T15:28:17.479Z,98684.81
2018-06-28T15:30:45.717Z,98684.32
2018-06-28T15:33:13.295Z,98680.69
2018-06-28T15:35:40.931Z,98679.07
2018-06-28T15:38:08.448Z,98680.81
2018-06-28T15:40:35.852Z,98683.53
2018-06-28T15:43:03.384Z,98683.16
2018-06-28T15:45:30.813Z,98683.74
2018-06-28T15:47:58.422Z,98690.58
2018-06-28T15:50:25.994Z,98692.09
2018-06-28T15:52:53.484Z,98694.14
2018-06-28T15:55:20.862Z,98692.06
2018-06-28T15:57:50.150Z,98686.97
2018-06-28T16:00:18.381Z,98683.76
2018-06-28T16:02:45.965Z,98679.73
2018-06-28T16:05:13.797Z,98670.62
2018-06-28T16:07:41.341Z,98667.78
2018-06-28T16:10:09.577Z,98661.03
2018-06-28T16:12:36.945Z,98667.30
2018-06-28T16:15:04.565Z,98656.80
2018-06-28T16:17:31.940Z,98653.75
2018-06-28T16:19:59.557Z,98656.44
2018-06-28T16:22:26.912Z,98647.94
2018-06-28T16:24:54.307Z,98654.31
2018-06-28T16:27:22.269Z,98657.52
2018-06-28T16:29:49.679Z,98654.72
2018-06-28T16:32:17.166Z,98660.94
2018-06-28T16:34:44.532Z,98665.09
2018-06-28T16:37:11.920Z,98667.41
2018-06-28T16:39:39.285Z,98672.13
2018-06-28T16:42:06.942Z,98673.14
2018-06-28T16:44:34.513Z,98669.33
2018-06-28T16:47:01.905Z,98678.03
2018-06-28T16:49:29.885Z,98671.20
2018-06-28T16:51:57.250Z,98680.83
2018-06-28T16:54:25.100Z,98681.93
2018-06-28T16:56:52.492Z,98671.67
2018-06-28T16:59:19.935Z,98684.13
2018-06-28T17:01:47.310Z,98679.73
2018-06-28T17:04:14.883Z,98682.13
2018-06-28T17:06:42.431Z,98676.25
2018-06-28T17:09:10.279Z,98673.34
2018-06-28T17:11:37.656Z,98678.59
2018-06-28T17:14:05.569Z,98672.30
2018-06-28T17:16:33.007Z,98664.86
2018-06-28T17:19:00.812Z,98657.06
2018-06-28T17:21:28.298Z,98655.66
2018-06-28T17:23:56.127Z,98657.58
2018-06-28T17:26:24.239Z,98656.67
2018-06-28T17:28:52.046Z,98660.09
2018-06-28T17:31:20.847Z,98656.11
2018-06-28T17:33:48.727Z,98659.61
2018-06-28T17:36:16.499Z,98656.14
2018-06-28T17:38:44.301Z,98660.59
2018-06-28T17:41:12.096Z,98666.94
2018-06-28T17:43:39.959Z,98670.13
2018-06-28T17:46:08.150Z,98674.27
2018-06-28T17:48:35.807Z,98675.66
2018-06-28T17:51:04.163Z,98681.70
2018-06-28T17:53:32.608Z,98677.38
2018-06-28T17:56:00.616Z,98673.84
2018-06-28T17:59:17.687Z,98674.50
2018-06-28T18:01:46.399Z,98681.50
2018-06-28T18:04:14.370Z,98677.41
2018-06-28T18:06:44.704Z,98681.13
2018-06-28T18:09:12.242Z,98674.81
2018-06-28T18:11:39.848Z,98678.84
2018-06-28T18:14:08.134Z,98676.44
2018-06-28T18:16:37.103Z,98677.30
2018-06-28T18:19:04.761Z,98672.59
2018-06-28T18:21:32.167Z,98680.95
2018-06-28T18:24:00.486Z,98685.84
2018-06-28T18:26:28.278Z,98679.31
2018-06-28T18:28:57.551Z,98678.99
2018-06-28T18:31:25.296Z,98680.86
2018-06-28T18:33:53.535Z,98684.63
2018-06-28T18:36:21.202Z,98686.59
2018-06-28T18:38:50.085Z,98682.58
2018-06-28T18:41:22.488Z,98691.95
2018-06-28T18:43:53.763Z,98692.19
2018-06-28T18:46:26.992Z,98698.55
2018-06-28T18:48:59.162Z,98702.03
2018-06-28T18:51:29.440Z,98687.34
2018-06-28T18:54:01.072Z,98691.50
2018-06-28T18:56:33.354Z,98699.92
2018-06-28T18:59:09.014Z,98695.47
2018-06-28T19:01:38.699Z,98691.89
2018-06-28T19:04:12.614Z,98699.07
2018-06-28T19:06:44.014Z,98696.61
2018-06-28T19:09:13.726Z,98692.52
2018-06-28T19:11:44.249Z,98699.40
2018-06-28T19:14:20.071Z,98698.93
2018-06-28T19:16:57.590Z,98701.62
2018-06-28T19:19:28.619Z,98701.05
2018-06-28T19:23:05.984Z,98706.96
2018-06-28T19:25:35.660Z,98711.08
2018-06-28T19:28:04.579Z,98710.91
2018-06-28T19:30:39.374Z,98708.13
2018-06-28T19:33:07.529Z,98709.36
2018-06-28T19:35:38.126Z,98709.95
2018-06-28T19:38:10.428Z,98706.42
2018-06-28T19:40:46.691Z,98706.90
2018-06-28T19:43:15.618Z,98706.11
2018-06-28T19:45:45.198Z,98703.74
2018-06-28T19:48:13.243Z,98700.86
2018-06-28T19:50:47.029Z,98700.66
2018-06-28T19:53:23.622Z,98702.13
2018-06-28T19:55:55.420Z,98707.65
2018-06-28T19:58:27.454Z,98712.33
2018-06-28T20:01:02.057Z,98701.53
2018-06-28T20:03:38.907Z,98701.84
2018-06-28T20:06:12.248Z,98695.64
2018-06-28T20:08:41.096Z,98695.23
2018-06-28T20:11:09.201Z,98700.58
2018-06-28T20:13:43.973Z,98703.08
2018-06-28T20:16:18.441Z,98704.59
2018-06-28T20:18:57.469Z,98704.42
2018-06-28T20:21:31.603Z,98694.87
2018-06-28T20:24:01.729Z,98698.12
2018-06-28T20:26:39.614Z,98695.92
2018-06-28T20:29:18.142Z,98690.77
2018-06-28T20:31:56.156Z,98697.69
2018-06-28T20:34:50.806Z,98697.64
2018-06-28T20:37:18.372Z,98697.37
2018-06-28T20:39:45.833Z,98705.95
2018-06-28T20:42:13.233Z,98707.51
2018-06-28T20:44:41.869Z,98701.72
2018-06-28T20:47:10.990Z,98702.50
2018-06-28T20:49:38.566Z,98705.35
2018-06-28T20:52:06.089Z,98701.64
2018-06-28T20:54:33.356Z,98696.86
2018-06-28T20:57:00.622Z,98694.77
2018-06-28T20:59:27.824Z,98699.13
2018-06-28T21:01:55.134Z,98701.62
2018-06-28T21:04:22.445Z,98695.20
2018-06-28T21:06:49.696Z,98690.63
2018-06-28T21:09:16.982Z,98693.98
2018-06-28T21:11:44.234Z,98693.03
2018-06-28T21:14:11.519Z,98693.77
2018-06-28T21:16:38.786Z,98690.54
2018-06-28T21:19:06.061Z,98686.12
2018-06-28T21:21:33.318Z,98688.77
2018-06-28T21:24:00.538Z,98686.39
2018-06-28T21:26:27.881Z,98690.30
2018-06-28T21:28:55.118Z,98689.66
2018-06-28T21:31:22.380Z,98693.75
2018-06-28T21:33:49.636Z,98692.77
2018-06-28T21:36:16.923Z,98703.31
2018-06-28T21:38:44.200Z,98698.42
2018-06-28T21:41:11.453Z,98691.95
2018-06-28T21:43:38.700Z,98698.80
2018-06-28T21:46:05.967Z,98697.34
2018-06-28T21:48:33.224Z,98694.96
2018-06-28T21:51:00.474Z,98693.05
2018-06-28T21:53:27.770Z,98692.20
2018-06-28T21:55:54.997Z,98690.95
2018-06-28T21:58:22.263Z,98692.52
2018-06-28T22:00:49.536Z,98692.67
2018-06-28T22:03:16.820Z,98691.97
2018-06-28T22:05:44.063Z,98693.83
2018-06-28T22:08:11.375Z,98696.17
2018-06-28T22:10:38.558Z,98692.41
2018-06-28T22:13:05.863Z,98695.07
2018-06-28T22:15:33.122Z,98690.36
2018-06-28T22:18:01.846Z,98693.57
2018-06-28T22:20:30.021Z,98693.89
2018-06-28T22:22:57.286Z,98692.02
2018-06-28T22:25:26.055Z,98696.55
2018-06-28T22:27:53.338Z,98696.23
2018-06-28T22:30:21.177Z,98695.95
2018-06-28T22:32:48.485Z,98697.23
2018-06-28T22:35:15.769Z,98698.18
2018-06-28T22:37:43.427Z,98698.95
2018-06-28T22:40:10.903Z,98705.23
2018-06-28T22:42:38.151Z,98701.70
2018-06-28T22:45:05.698Z,98700.66
2018-06-28T22:47:33.174Z,98692.38
2018-06-28T22:50:00.462Z,98691.27
2018-06-28T22:52:28.480Z,98695.52
2018-06-28T22:54:56.286Z,98692.23
2018-06-28T22:57:23.810Z,98694.89
2018-06-28T22:59:51.066Z,98694.27
2018-06-28T23:02:18.315Z,98691.12
2018-06-28T23:04:45.654Z,98700.68
2018-06-28T23:07:13.133Z,98699.82
2018-06-28T23:09:40.438Z,98700.06
2018-06-28T23:12:07.694Z,98696.63
2018-06-28T23:14:34.988Z,98699.02
2018-06-28T23:17:02.292Z,98702.16
2018-06-28T23:19:29.563Z,98702.55
2018-06-28T23:21:56.798Z,98707.72
2018-06-28T23:24:24.071Z,98700.50
2018-06-28T23:26:51.324Z,98698.55
2018-06-28T23:29:18.595Z,98701.39
2018-06-28T23:31:45.844Z,98697.48
2018-06-28T23:34:13.132Z,98701.16
2018-06-28T23:36:40.369Z,98701.72
2018-06-28T23:39:08.977Z,98697.48
2018-06-28T23:41:36.524Z,98692.55
2018-06-28T23:44:04.257Z,98690.64
2018-06-28T23:46:31.498Z,98687.50
2018-06-28T23:48:58.790Z,98693.02
2018-06-28T23:51:26.060Z,98690.26
2018-06-28T23:53:53.456Z,98689.64
2018-06-28T23:56:20.586Z,98694.67
2018-06-28T23:58:47.813Z,98687.45
